Time;durP1;ratioP1;P1;durP2;ratioP2;P2;SDS_P1;SDS_P2;PMS_P1;PMS_P2;Temp;Humidity;BMP_temperature;BMP_pressure;BME280_temperature;BME280_humidity;BME280_pressure;Samples;Min_cycle;Max_cycle;Signal;HPM_P1;HPM_P2
2022/03/23 00:01:38;;;;;;;13.70;7.30;;;;;;;;;;1714152;84;21581;-71
2022/03/23 00:04:05;;;;;;;13.72;6.83;;;;;;;;;;1709491;84;21075;-71
2022/03/23 00:06:33;;;;;;;13.70;7.35;;;;;;;;;;1725197;83;21000;-71
2022/03/23 00:09:00;;;;;;;12.73;5.97;;;;;;;;;;1731506;83;21111;-70
2022/03/23 00:11:29;;;;;;;17.42;5.80;;;;;;;;;;1702412;84;21040;-71
2022/03/23 00:13:56;;;;;;;15.13;6.87;;;;;;;;;;1731548;83;21040;-72
2022/03/23 00:16:23;;;;;;;10.05;5.35;;;;;;;;;;1731520;83;21068;-72
2022/03/23 00:18:50;;;;;;;13.30;6.47;;;;;;;;;;1731452;83;21068;-72
2022/03/23 00:21:17;;;;;;;9.95;4.78;;;;;;;;;;1731719;83;21052;-72
2022/03/23 00:23:45;;;;;;;11.57;6.53;;;;;;;;;;1731416;83;21064;-72
2022/03/23 00:26:12;;;;;;;9.30;4.97;;;;;;;;;;1731452;83;21076;-70
2022/03/23 00:28:39;;;;;;;13.05;6.17;;;;;;;;;;1731596;83;20996;-70
2022/03/23 00:31:08;;;;;;;10.88;4.75;;;;;;;;;;1731516;83;21040;-70
2022/03/23 00:33:34;;;;;;;18.27;6.83;;;;;;;;;;1731433;83;21079;-70
2022/03/23 00:36:01;;;;;;;10.53;4.53;;;;;;;;;;1731517;83;21084;-71
2022/03/23 00:38:29;;;;;;;14.63;6.58;;;;;;;;;;1731495;83;21076;-71
2022/03/23 00:40:58;;;;;;;12.73;6.72;;;;;;;;;;1731557;83;20997;-71
2022/03/23 00:43:24;;;;;;;13.25;6.42;;;;;;;;;;1731615;83;21079;-70
2022/03/23 00:45:51;;;;;;;13.55;6.92;;;;;;;;;;1731482;83;21121;-72
2022/03/23 00:48:18;;;;;;;11.00;4.75;;;;;;;;;;1702711;83;21087;-72
2022/03/23 00:50:44;;;;;;;10.20;6.50;;;;;;;;;;1731752;83;21044;-72
2022/03/23 00:53:11;;;;;;;17.52;5.17;;;;;;;;;;1731377;83;21382;-72
2022/03/23 00:55:39;;;;;;;16.42;7.08;;;;;;;;;;1731418;83;21578;-71
2022/03/23 00:58:07;;;;;;;10.68;5.87;;;;;;;;;;1731235;83;21492;-72
2022/03/23 01:03:42;;;;;;;18.12;7.72;;;;;;;;;;1742967;78;21691;-69
2022/03/23 01:06:12;;;;;;;11.95;5.90;;;;;;;;;;1768136;81;21035;-69
2022/03/23 01:08:40;;;;;;;17.17;8.55;;;;;;;;;;1763610;81;21035;-69
2022/03/23 01:11:06;;;;;;;12.58;5.70;;;;;;;;;;1771137;81;21038;-70
2022/03/23 01:13:36;;;;;;;18.05;8.45;;;;;;;;;;1763550;81;20999;-69
2022/03/23 01:16:05;;;;;;;14.23;6.55;;;;;;;;;;1771089;81;21109;-71
2022/03/23 01:18:32;;;;;;;20.12;9.03;;;;;;;;;;1763589;81;21075;-71
2022/03/23 01:21:01;;;;;;;11.35;5.47;;;;;;;;;;1770661;81;21549;-71
2022/03/23 01:23:27;;;;;;;17.45;7.92;;;;;;;;;;1763648;81;20987;-70
2022/03/23 01:25:54;;;;;;;12.13;5.67;;;;;;;;;;1770691;81;21505;-69
2022/03/23 01:28:21;;;;;;;16.70;7.87;;;;;;;;;;1770807;81;21034;-69
2022/03/23 01:30:47;;;;;;;14.95;6.30;;;;;;;;;;1763594;81;20972;-69
2022/03/23 01:33:13;;;;;;;15.48;7.75;;;;;;;;;;1770794;81;21494;-69
2022/03/23 01:35:42;;;;;;;16.77;9.18;;;;;;;;;;1770436;81;21007;-69
2022/03/23 01:38:09;;;;;;;16.25;6.17;;;;;;;;;;1763709;81;21015;-70
2022/03/23 01:40:36;;;;;;;21.15;9.53;;;;;;;;;;1770644;81;21003;-69
2022/03/23 01:43:04;;;;;;;14.68;6.53;;;;;;;;;;1771049;81;21047;-70
2022/03/23 01:45:33;;;;;;;14.25;6.20;;;;;;;;;;1763657;81;21031;-70
2022/03/23 01:47:59;;;;;;;15.32;6.62;;;;;;;;;;1770980;81;21051;-69
2022/03/23 01:50:29;;;;;;;15.55;5.97;;;;;;;;;;1770849;81;21106;-69
2022/03/23 01:52:56;;;;;;;13.10;5.97;;;;;;;;;;1771059;81;21007;-70
2022/03/23 01:55:23;;;;;;;16.48;7.08;;;;;;;;;;1763649;81;21538;-69
2022/03/23 01:57:51;;;;;;;15.93;8.08;;;;;;;;;;1770436;81;21033;-71
2022/03/23 02:00:18;;;;;;;15.58;6.78;;;;;;;;;;1763365;81;21019;-71
2022/03/23 02:02:46;;;;;;;13.35;6.40;;;;;;;;;;1770796;81;21053;-71
2022/03/23 02:05:15;;;;;;;19.27;7.37;;;;;;;;;;1711697;81;21642;-71
2022/03/23 02:07:54;;;;;;;15.35;7.37;;;;;;;;;;1734511;82;21056;-70
2022/03/23 02:10:22;;;;;;;17.67;7.50;;;;;;;;;;1734417;82;21099;-70
2022/03/23 02:12:54;;;;;;;18.25;7.80;;;;;;;;;;1734292;82;21028;-70
2022/03/23 02:15:22;;;;;;;15.72;7.72;;;;;;;;;;1734404;82;21056;-70
2022/03/23 02:17:53;;;;;;;13.98;6.97;;;;;;;;;;1734270;82;21048;-71
2022/03/23 02:20:20;;;;;;;11.43;5.90;;;;;;;;;;1734095;83;21091;-70
2022/03/23 02:22:48;;;;;;;18.98;8.98;;;;;;;;;;1734294;82;21037;-70
2022/03/23 02:25:17;;;;;;;17.52;7.05;;;;;;;;;;1734489;83;21591;-70
2022/03/23 02:27:45;;;;;;;14.50;6.90;;;;;;;;;;1734260;83;21575;-70
2022/03/23 02:30:12;;;;;;;17.77;7.65;;;;;;;;;;1697551;84;21056;-70
2022/03/23 02:32:39;;;;;;;17.23;8.23;;;;;;;;;;1701828;84;21087;-70
2022/03/23 02:35:08;;;;;;;14.15;6.97;;;;;;;;;;1723256;83;21100;-71
2022/03/23 02:37:37;;;;;;;14.30;5.65;;;;;;;;;;1723640;83;21088;-70
2022/03/23 02:40:05;;;;;;;15.32;7.37;;;;;;;;;;1723299;83;21108;-70
2022/03/23 02:42:32;;;;;;;15.05;7.70;;;;;;;;;;1723298;83;21072;-70
2022/03/23 02:45:00;;;;;;;12.70;6.12;;;;;;;;;;1723356;83;21079;-70
2022/03/23 02:47:26;;;;;;;11.43;5.80;;;;;;;;;;1723797;83;21037;-70
2022/03/23 02:49:53;;;;;;;13.83;6.97;;;;;;;;;;1723146;83;21071;-70
2022/03/23 02:52:20;;;;;;;16.95;6.05;;;;;;;;;;1723579;83;21076;-69
2022/03/23 03:03:14;;;;;;;15.38;6.58;;;;;;;;;;1723738;83;21064;-69
2022/03/23 03:05:41;;;;;;;12.05;6.08;;;;;;;;;;1748181;82;21068;-70
2022/03/23 03:10:54;;;;;;;11.90;5.92;;;;;;;;;;1761420;81;21024;-70
2022/03/23 03:13:21;;;;;;;13.93;6.25;;;;;;;;;;1728013;83;21571;-70
2022/03/23 03:15:49;;;;;;;12.82;6.37;;;;;;;;;;1727967;83;21669;-70
2022/03/23 03:18:17;;;;;;;11.48;6.12;;;;;;;;;;1727870;83;21167;-70
2022/03/23 03:20:44;;;;;;;16.90;6.10;;;;;;;;;;1728004;83;21068;-70
2022/03/23 03:23:12;;;;;;;14.63;6.53;;;;;;;;;;1727900;83;21124;-69
2022/03/23 03:25:39;;;;;;;13.90;6.50;;;;;;;;;;1727959;83;21088;-69
2022/03/23 03:28:06;;;;;;;15.23;6.65;;;;;;;;;;1728399;83;21027;-69
2022/03/23 03:30:32;;;;;;;13.00;6.17;;;;;;;;;;1727993;83;21563;-69
2022/03/23 03:32:59;;;;;;;11.70;6.28;;;;;;;;;;1727932;83;21056;-69
2022/03/23 03:35:26;;;;;;;13.48;6.17;;;;;;;;;;1727861;83;21480;-70
2022/03/23 03:37:52;;;;;;;12.55;6.00;;;;;;;;;;1728103;83;21064;-70
2022/03/23 03:40:19;;;;;;;13.25;6.42;;;;;;;;;;1727932;83;21048;-70
2022/03/23 03:42:46;;;;;;;16.45;6.87;;;;;;;;;;1728143;83;21108;-70
2022/03/23 03:45:13;;;;;;;12.53;6.40;;;;;;;;;;1727885;83;21027;-70
2022/03/23 03:47:40;;;;;;;16.30;6.70;;;;;;;;;;1728204;83;21488;-70
2022/03/23 03:50:09;;;;;;;10.53;5.75;;;;;;;;;;1728107;83;21063;-70
2022/03/23 03:52:35;;;;;;;12.30;6.35;;;;;;;;;;1728423;83;21001;-70
2022/03/23 03:55:02;;;;;;;14.25;6.70;;;;;;;;;;1727814;83;21571;-70
2022/03/23 03:57:28;;;;;;;12.40;6.35;;;;;;;;;;1727986;83;21067;-70
2022/03/23 03:59:56;;;;;;;13.60;5.90;;;;;;;;;;1728405;83;21508;-71
2022/03/23 04:02:22;;;;;;;13.25;6.37;;;;;;;;;;1728137;83;21044;-71
2022/03/23 04:04:49;;;;;;;12.73;6.22;;;;;;;;;;1727948;83;21102;-69
2022/03/23 04:07:16;;;;;;;13.25;6.47;;;;;;;;;;1728251;83;21036;-72
2022/03/23 04:09:45;;;;;;;16.75;7.87;;;;;;;;;;1727646;83;21135;-71
2022/03/23 04:12:12;;;;;;;17.90;7.80;;;;;;;;;;1728269;83;21048;-71
2022/03/23 04:14:40;;;;;;;18.02;9.18;;;;;;;;;;1727916;83;21029;-71
2022/03/23 04:17:07;;;;;;;18.17;9.30;;;;;;;;;;1728166;83;21045;-71
2022/03/23 04:19:35;;;;;;;21.45;9.20;;;;;;;;;;1728153;83;21055;-71
2022/03/23 04:22:03;;;;;;;29.27;9.70;;;;;;;;;;1728160;83;21037;-71
2022/03/23 04:24:32;;;;;;;30.12;12.40;;;;;;;;;;1727954;83;21567;-71
2022/03/23 04:26:59;;;;;;;24.90;12.18;;;;;;;;;;1726115;83;21040;-71
2022/03/23 04:29:27;;;;;;;28.83;11.68;;;;;;;;;;1723637;83;21028;-70
2022/03/23 04:31:54;;;;;;;25.55;11.60;;;;;;;;;;1764925;81;21059;-69
2022/03/23 04:34:21;;;;;;;29.52;11.70;;;;;;;;;;1765068;81;21110;-71
2022/03/23 04:36:47;;;;;;;30.08;14.20;;;;;;;;;;1764809;81;21508;-69
2022/03/23 04:39:14;;;;;;;26.20;13.43;;;;;;;;;;1765077;81;21028;-69
2022/03/23 04:41:41;;;;;;;25.60;11.43;;;;;;;;;;1764843;81;21555;-69
2022/03/23 04:44:07;;;;;;;28.92;12.53;;;;;;;;;;1765035;81;21020;-70
2022/03/23 04:46:34;;;;;;;31.50;13.50;;;;;;;;;;1764843;81;21048;-70
2022/03/23 04:49:03;;;;;;;29.10;12.78;;;;;;;;;;1764891;81;21059;-70
2022/03/23 04:51:31;;;;;;;28.65;13.18;;;;;;;;;;1765059;81;21566;-70
2022/03/23 04:53:57;;;;;;;27.55;13.43;;;;;;;;;;1765142;81;21510;-70
2022/03/23 04:56:24;;;;;;;25.12;12.82;;;;;;;;;;1764797;81;21031;-70
2022/03/23 04:58:51;;;;;;;25.37;12.80;;;;;;;;;;1765042;81;21040;-70
2022/03/23 05:01:17;;;;;;;30.77;13.98;;;;;;;;;;1765141;81;21040;-70
2022/03/23 05:03:46;;;;;;;28.73;13.30;;;;;;;;;;1764595;81;21136;-70
2022/03/23 05:06:12;;;;;;;32.38;14.90;;;;;;;;;;1766977;81;21063;-70
2022/03/23 05:08:39;;;;;;;31.15;15.30;;;;;;;;;;1767831;81;21118;-70
2022/03/23 05:11:05;;;;;;;27.67;15.00;;;;;;;;;;1767737;81;21043;-70
2022/03/23 05:13:34;;;;;;;36.58;16.35;;;;;;;;;;1768075;81;21094;-70
2022/03/23 05:16:01;;;;;;;25.85;13.30;;;;;;;;;;1767684;81;21127;-71
2022/03/23 05:18:28;;;;;;;32.20;17.65;;;;;;;;;;1768010;81;21531;-70
2022/03/23 05:20:55;;;;;;;34.90;20.80;;;;;;;;;;1767865;81;21008;-70
2022/03/23 05:23:22;;;;;;;33.53;19.55;;;;;;;;;;1767981;81;21027;-70
2022/03/23 05:25:49;;;;;;;32.65;20.02;;;;;;;;;;1768105;81;21052;-70
2022/03/23 05:28:16;;;;;;;31.97;16.90;;;;;;;;;;1767905;81;21111;-70
2022/03/23 05:30:43;;;;;;;28.92;18.27;;;;;;;;;;1767796;81;21511;-70
2022/03/23 05:33:12;;;;;;;29.05;18.75;;;;;;;;;;1767913;81;21072;-69
2022/03/23 05:35:39;;;;;;;30.50;16.40;;;;;;;;;;1767753;81;21074;-69
2022/03/23 05:38:07;;;;;;;25.55;16.97;;;;;;;;;;1767954;81;21102;-69
2022/03/23 05:40:34;;;;;;;27.00;17.27;;;;;;;;;;1767758;81;21016;-71
2022/03/23 05:43:02;;;;;;;26.37;17.02;;;;;;;;;;1767777;81;21073;-69
2022/03/23 05:45:29;;;;;;;32.80;19.65;;;;;;;;;;1767933;81;21574;-69
2022/03/23 05:47:56;;;;;;;31.70;19.90;;;;;;;;;;1767745;81;21024;-70
2022/03/23 05:50:23;;;;;;;32.35;20.20;;;;;;;;;;1767743;81;21059;-70
2022/03/23 05:52:50;;;;;;;31.82;20.30;;;;;;;;;;1768065;81;21051;-72
2022/03/23 05:55:17;;;;;;;31.30;20.60;;;;;;;;;;1767817;81;21071;-70
2022/03/23 05:57:44;;;;;;;29.45;21.10;;;;;;;;;;1768053;81;21126;-71
2022/03/23 06:00:11;;;;;;;28.55;19.67;;;;;;;;;;1767396;81;21083;-72
2022/03/23 06:02:38;;;;;;;34.30;20.52;;;;;;;;;;1767738;81;21043;-70
2022/03/23 06:05:06;;;;;;;30.60;21.95;;;;;;;;;;1767269;81;21052;-70
2022/03/23 06:07:34;;;;;;;37.05;21.75;;;;;;;;;;1767958;81;21035;-70
2022/03/23 06:10:01;;;;;;;37.20;23.73;;;;;;;;;;1767532;81;21125;-70
2022/03/23 06:12:28;;;;;;;46.60;29.40;;;;;;;;;;1767986;81;21040;-70
2022/03/23 06:14:55;;;;;;;44.90;31.80;;;;;;;;;;1767507;81;21380;-71
2022/03/23 06:17:23;;;;;;;46.00;31.40;;;;;;;;;;1767644;81;21059;-71
2022/03/23 06:19:51;;;;;;;43.68;30.77;;;;;;;;;;1767774;81;21020;-70
2022/03/23 06:22:19;;;;;;;45.23;32.95;;;;;;;;;;1767718;81;21004;-72
2022/03/23 06:24:46;;;;;;;46.90;32.33;;;;;;;;;;1767707;81;21119;-69
2022/03/23 06:27:13;;;;;;;47.13;32.85;;;;;;;;;;1767907;81;21043;-69
2022/03/23 06:29:41;;;;;;;53.75;35.50;;;;;;;;;;1767598;81;21118;-71
2022/03/23 06:32:09;;;;;;;53.33;37.35;;;;;;;;;;1767705;81;21083;-70
2022/03/23 06:34:35;;;;;;;50.25;36.58;;;;;;;;;;1767794;81;21028;-71
2022/03/23 06:37:02;;;;;;;57.00;37.13;;;;;;;;;;1767783;81;21028;-71
2022/03/23 06:39:29;;;;;;;54.53;38.73;;;;;;;;;;1767720;81;21083;-71
2022/03/23 06:41:56;;;;;;;60.58;42.50;;;;;;;;;;1767756;81;21016;-71
2022/03/23 06:44:23;;;;;;;61.15;38.00;;;;;;;;;;1768098;81;21091;-71
2022/03/23 06:46:50;;;;;;;67.87;47.05;;;;;;;;;;1767923;81;21055;-71
2022/03/23 06:49:17;;;;;;;70.17;45.20;;;;;;;;;;1767915;81;21107;-71
2022/03/23 06:51:45;;;;;;;65.70;46.55;;;;;;;;;;1767644;81;21091;-71
2022/03/23 06:54:11;;;;;;;78.28;48.85;;;;;;;;;;1767760;81;21055;-71
2022/03/23 06:56:38;;;;;;;65.05;46.53;;;;;;;;;;1768044;81;21000;-71
2022/03/23 06:59:04;;;;;;;68.02;48.38;;;;;;;;;;1767815;81;21060;-71
2022/03/23 07:01:31;;;;;;;75.92;48.87;;;;;;;;;;1767705;81;21056;-71
2022/03/23 07:03:58;;;;;;;73.50;51.08;;;;;;;;;;1767813;81;21105;-71
2022/03/23 07:06:25;;;;;;;73.35;53.10;;;;;;;;;;1765765;81;21075;-70
2022/03/23 07:11:37;;;;;;;74.32;50.23;;;;;;;;;;1764896;81;21087;-71
2022/03/23 07:14:04;;;;;;;76.22;52.75;;;;;;;;;;1764649;81;21095;-71
2022/03/23 07:16:32;;;;;;;71.72;51.55;;;;;;;;;;1764783;81;21032;-71
2022/03/23 07:18:59;;;;;;;69.40;49.77;;;;;;;;;;1765132;81;21048;-71
2022/03/23 07:21:25;;;;;;;65.95;47.60;;;;;;;;;;1764803;81;21100;-71
2022/03/23 07:23:53;;;;;;;72.27;47.98;;;;;;;;;;1765051;81;21063;-71
2022/03/23 07:26:21;;;;;;;71.33;48.42;;;;;;;;;;1765003;81;21047;-71
2022/03/23 07:28:49;;;;;;;75.22;53.00;;;;;;;;;;1764857;81;21032;-71
2022/03/23 07:31:15;;;;;;;73.97;51.68;;;;;;;;;;1765046;81;21024;-71
2022/03/23 07:33:42;;;;;;;80.75;54.20;;;;;;;;;;1765218;81;21024;-71
2022/03/23 07:36:11;;;;;;;73.47;53.35;;;;;;;;;;1764570;81;21547;-71
2022/03/23 07:38:39;;;;;;;87.20;55.92;;;;;;;;;;1765067;81;21079;-70
2022/03/23 07:41:06;;;;;;;75.55;53.83;;;;;;;;;;1764567;81;21080;-70
2022/03/23 07:43:32;;;;;;;75.37;51.20;;;;;;;;;;1764801;81;21036;-69
2022/03/23 07:46:00;;;;;;;80.65;55.23;;;;;;;;;;1764963;81;21072;-69
2022/03/23 07:48:32;;;;;;;78.60;55.05;;;;;;;;;;1764736;81;21052;-69
2022/03/23 07:50:56;;;;;;;81.82;53.73;;;;;;;;;;1764066;81;21028;-71
2022/03/23 07:53:23;;;;;;;80.87;55.00;;;;;;;;;;1765226;81;21028;-69
2022/03/23 07:55:49;;;;;;;82.47;54.80;;;;;;;;;;1765077;81;21032;-71
2022/03/23 07:58:16;;;;;;;80.77;50.70;;;;;;;;;;1764918;81;21056;-71
2022/03/23 08:00:43;;;;;;;82.45;55.05;;;;;;;;;;1765084;81;21020;-70
2022/03/23 08:03:10;;;;;;;78.52;54.50;;;;;;;;;;1764949;81;21508;-70
2022/03/23 08:05:46;;;;;;;83.87;54.27;;;;;;;;;;1765380;81;21059;-70
2022/03/23 08:08:11;;;;;;;66.22;45.95;;;;;;;;;;1767279;81;21143;-72
2022/03/23 08:10:42;;;;;;;68.42;47.23;;;;;;;;;;1767900;81;21044;-70
2022/03/23 08:13:12;;;;;;;72.53;48.00;;;;;;;;;;1768018;81;21052;-69
2022/03/23 08:15:39;;;;;;;76.12;51.83;;;;;;;;;;1768006;81;21063;-70
2022/03/23 08:18:06;;;;;;;58.65;41.68;;;;;;;;;;1768067;81;21075;-70
2022/03/23 08:20:35;;;;;;;58.15;38.33;;;;;;;;;;1767721;81;21527;-70
2022/03/23 08:23:04;;;;;;;65.10;39.75;;;;;;;;;;1767930;81;21087;-70
2022/03/23 08:25:31;;;;;;;53.92;35.23;;;;;;;;;;1767744;81;21012;-70
2022/03/23 08:28:01;;;;;;;56.65;38.23;;;;;;;;;;1767816;81;21095;-70
2022/03/23 08:30:28;;;;;;;56.70;38.60;;;;;;;;;;1767964;81;21572;-72
2022/03/23 08:32:55;;;;;;;53.68;40.20;;;;;;;;;;1768126;81;21075;-71
2022/03/23 08:35:21;;;;;;;56.42;38.02;;;;;;;;;;1767952;81;21047;-70
2022/03/23 08:37:50;;;;;;;59.63;39.18;;;;;;;;;;1767345;81;21051;-69
2022/03/23 08:40:16;;;;;;;54.38;35.50;;;;;;;;;;1768063;81;21962;-71
2022/03/23 08:42:43;;;;;;;49.03;32.03;;;;;;;;;;1768094;81;21051;-70
2022/03/23 08:45:09;;;;;;;50.05;34.58;;;;;;;;;;1767776;81;21574;-70
2022/03/23 08:47:38;;;;;;;48.40;32.88;;;;;;;;;;1768111;81;21036;-70
2022/03/23 08:50:07;;;;;;;53.38;35.70;;;;;;;;;;1768020;81;21012;-71
2022/03/23 08:52:34;;;;;;;47.25;29.57;;;;;;;;;;1767859;81;20996;-71
2022/03/23 08:55:04;;;;;;;52.38;35.83;;;;;;;;;;1767863;81;21605;-71
2022/03/23 08:57:31;;;;;;;50.15;32.65;;;;;;;;;;1767952;81;21075;-70
2022/03/23 08:59:58;;;;;;;59.27;41.33;;;;;;;;;;1767801;81;21028;-70
2022/03/23 09:02:25;;;;;;;60.23;39.30;;;;;;;;;;1768160;81;21091;-71
2022/03/23 09:04:51;;;;;;;61.90;38.42;;;;;;;;;;1767897;81;21070;-70
2022/03/23 09:07:18;;;;;;;66.42;43.63;;;;;;;;;;1767417;81;21649;-71
2022/03/23 09:09:44;;;;;;;70.28;46.25;;;;;;;;;;1768006;81;21064;-69
2022/03/23 09:12:13;;;;;;;69.90;44.18;;;;;;;;;;1767520;81;21279;-70
2022/03/23 09:14:40;;;;;;;65.78;44.25;;;;;;;;;;1767730;81;21601;-70
2022/03/23 09:17:09;;;;;;;62.43;40.63;;;;;;;;;;1767589;81;21575;-71
2022/03/23 09:19:37;;;;;;;67.08;40.88;;;;;;;;;;1767816;81;20996;-70
2022/03/23 09:22:04;;;;;;;51.33;34.30;;;;;;;;;;1767682;81;21047;-71
2022/03/23 09:24:30;;;;;;;50.75;33.83;;;;;;;;;;1767768;81;21020;-70
2022/03/23 09:26:57;;;;;;;48.73;31.35;;;;;;;;;;1767713;81;21060;-70
2022/03/23 09:29:25;;;;;;;44.90;28.60;;;;;;;;;;1768021;81;21043;-70
2022/03/23 09:31:51;;;;;;;47.93;28.92;;;;;;;;;;1767829;81;21032;-70
2022/03/23 09:34:19;;;;;;;44.95;28.90;;;;;;;;;;1767791;81;21074;-70
2022/03/23 09:39:31;;;;;;;46.05;32.70;;;;;;;;;;1767750;81;21044;-71
2022/03/23 09:41:58;;;;;;;47.95;31.80;;;;;;;;;;1767915;81;21046;-70
2022/03/23 09:44:30;;;;;;;52.30;32.85;;;;;;;;;;1767623;81;21055;-70
2022/03/23 09:46:54;;;;;;;50.43;35.30;;;;;;;;;;1766508;81;21036;-70
2022/03/23 09:49:22;;;;;;;50.75;33.73;;;;;;;;;;1767947;81;21099;-69
2022/03/23 09:51:53;;;;;;;51.00;33.28;;;;;;;;;;1768122;81;21007;-70
2022/03/23 09:54:21;;;;;;;48.70;32.58;;;;;;;;;;1767950;81;21435;-71
2022/03/23 09:56:48;;;;;;;45.48;28.90;;;;;;;;;;1768063;81;21047;-70
2022/03/23 09:59:15;;;;;;;42.23;28.92;;;;;;;;;;1767798;81;21059;-71
2022/03/23 10:01:43;;;;;;;42.00;26.82;;;;;;;;;;1767855;81;21071;-70
2022/03/23 10:04:14;;;;;;;37.42;26.52;;;;;;;;;;1767832;81;21083;-71
2022/03/23 10:06:49;;;;;;;32.45;22.77;;;;;;;;;;1766456;81;21075;-69
2022/03/23 10:09:23;;;;;;;34.08;24.12;;;;;;;;;;1764632;81;20997;-70
2022/03/23 10:12:09;;;;;;;31.77;21.65;;;;;;;;;;1764719;81;21059;-72
2022/03/23 10:14:48;;;;;;;33.50;22.45;;;;;;;;;;1764848;81;21147;-71
2022/03/23 10:17:23;;;;;;;32.20;22.85;;;;;;;;;;1764431;81;21051;-71
2022/03/23 10:19:51;;;;;;;39.40;25.27;;;;;;;;;;1764814;81;21531;-71
2022/03/23 10:22:18;;;;;;;36.28;23.15;;;;;;;;;;1764493;81;21016;-71
2022/03/23 10:24:44;;;;;;;31.27;21.73;;;;;;;;;;1765079;81;21515;-71
2022/03/23 10:27:12;;;;;;;25.88;18.42;;;;;;;;;;1764461;81;21106;-70
2022/03/23 10:29:42;;;;;;;27.87;19.92;;;;;;;;;;1764941;81;21615;-70
2022/03/23 10:32:10;;;;;;;32.20;21.52;;;;;;;;;;1764337;81;21670;-70
2022/03/23 10:34:47;;;;;;;28.40;19.67;;;;;;;;;;1764691;81;21093;-70
2022/03/23 10:37:14;;;;;;;30.25;21.05;;;;;;;;;;1764579;81;21099;-70
2022/03/23 10:39:41;;;;;;;21.27;14.45;;;;;;;;;;1765176;81;21491;-70
2022/03/23 10:42:09;;;;;;;23.57;15.08;;;;;;;;;;1764692;81;21028;-70
2022/03/23 10:44:36;;;;;;;20.80;13.95;;;;;;;;;;1761682;81;21019;-70
2022/03/23 10:47:03;;;;;;;32.38;19.90;;;;;;;;;;1764783;81;21519;-70
2022/03/23 10:49:31;;;;;;;30.25;19.50;;;;;;;;;;1765101;81;21008;-70
2022/03/23 10:51:59;;;;;;;30.43;20.02;;;;;;;;;;1764664;81;21056;-71
2022/03/23 10:54:28;;;;;;;31.45;19.92;;;;;;;;;;1764182;81;21554;-71
2022/03/23 10:56:54;;;;;;;29.65;21.55;;;;;;;;;;1764617;81;21036;-71
2022/03/23 10:59:23;;;;;;;28.50;20.20;;;;;;;;;;1764713;81;21073;-70
2022/03/23 11:01:57;;;;;;;33.70;23.27;;;;;;;;;;1764876;81;21056;-71
2022/03/23 11:04:28;;;;;;;42.65;28.47;;;;;;;;;;1764815;81;21756;-70
2022/03/23 11:06:53;;;;;;;54.33;34.48;;;;;;;;;;1765299;81;21103;-70
2022/03/23 11:16:18;;;;;;;55.40;36.75;;;;;;;;;;1761752;81;21084;-70
2022/03/23 11:18:45;;;;;;;56.85;37.75;;;;;;;;;;1761737;81;21072;-71
2022/03/23 11:21:13;;;;;;;54.05;36.38;;;;;;;;;;1761894;81;21060;-71
2022/03/23 11:23:41;;;;;;;56.23;34.60;;;;;;;;;;1761798;81;21072;-71
2022/03/23 11:26:08;;;;;;;59.13;39.90;;;;;;;;;;1761727;81;21549;-71
2022/03/23 11:28:40;;;;;;;65.67;42.17;;;;;;;;;;1762054;81;21290;-71
2022/03/23 11:31:10;;;;;;;64.03;45.00;;;;;;;;;;1762047;81;21064;-71
2022/03/23 11:33:38;;;;;;;66.62;44.45;;;;;;;;;;1762087;81;21080;-71
2022/03/23 11:36:09;;;;;;;75.15;47.08;;;;;;;;;;1761687;81;21088;-70
2022/03/23 11:38:34;;;;;;;52.62;37.08;;;;;;;;;;1761806;81;21044;-70
2022/03/23 11:41:00;;;;;;;49.85;34.60;;;;;;;;;;1761705;81;21091;-70
2022/03/23 11:43:29;;;;;;;52.45;31.82;;;;;;;;;;1761703;81;21584;-70
2022/03/23 11:45:56;;;;;;;43.55;30.20;;;;;;;;;;1761818;81;21072;-70
2022/03/23 11:48:34;;;;;;;47.17;29.82;;;;;;;;;;1761615;81;21037;-71
2022/03/23 11:51:08;;;;;;;37.50;25.88;;;;;;;;;;1761721;81;21809;-69
2022/03/23 11:53:37;;;;;;;34.65;22.62;;;;;;;;;;1762021;81;21588;-70
2022/03/23 11:56:04;;;;;;;38.15;24.85;;;;;;;;;;1761462;81;21044;-70
2022/03/23 11:58:35;;;;;;;39.85;24.82;;;;;;;;;;1761828;81;21076;-70
2022/03/23 12:01:09;;;;;;;39.38;26.68;;;;;;;;;;1761782;81;21535;-70
2022/03/23 12:03:58;;;;;;;38.92;25.30;;;;;;;;;;1750217;81;21686;-70
2022/03/23 12:06:27;;;;;;;33.40;24.07;;;;;;;;;;1728221;83;21111;-70
2022/03/23 12:08:58;;;;;;;35.17;24.20;;;;;;;;;;1726439;83;21071;-70
2022/03/23 12:11:31;;;;;;;35.50;23.92;;;;;;;;;;1728161;83;21032;-69
2022/03/23 12:13:59;;;;;;;33.23;22.90;;;;;;;;;;1720109;83;21103;-70
2022/03/23 12:16:45;;;;;;;28.15;20.40;;;;;;;;;;1720338;83;21052;-71
2022/03/23 12:19:14;;;;;;;34.63;23.42;;;;;;;;;;1720276;83;21012;-71
2022/03/23 12:21:43;;;;;;;33.73;22.65;;;;;;;;;;1716307;83;21559;-71
2022/03/23 12:24:12;;;;;;;35.50;24.75;;;;;;;;;;1720221;83;21028;-70
2022/03/23 12:26:39;;;;;;;39.33;26.00;;;;;;;;;;1720172;83;21575;-71
2022/03/23 12:29:10;;;;;;;38.08;26.87;;;;;;;;;;1719920;83;21481;-71
2022/03/23 12:31:38;;;;;;;36.40;27.40;;;;;;;;;;1719699;83;21103;-71
2022/03/23 12:34:21;;;;;;;38.70;27.80;;;;;;;;;;1720039;83;21080;-71
2022/03/23 12:36:58;;;;;;;37.45;28.25;;;;;;;;;;1720284;83;21032;-71
2022/03/23 12:39:30;;;;;;;43.25;30.17;;;;;;;;;;1719882;83;20997;-71
2022/03/23 12:41:57;;;;;;;44.35;33.02;;;;;;;;;;1720091;83;21080;-72
2022/03/23 12:44:32;;;;;;;46.73;31.00;;;;;;;;;;1719850;83;20997;-72
2022/03/23 12:47:02;;;;;;;43.85;30.52;;;;;;;;;;1719497;83;21532;-71
2022/03/23 12:58:05;;;;;;;44.93;31.97;;;;;;;;;;1796682;79;20997;-71
2022/03/23 13:00:32;;;;;;;50.63;36.60;;;;;;;;;;1796248;79;21445;-72
2022/03/23 13:03:07;;;;;;;44.05;34.27;;;;;;;;;;1792436;80;21076;-72
2022/03/23 13:05:34;;;;;;;43.15;32.23;;;;;;;;;;1758815;81;21044;-72
2022/03/23 13:08:01;;;;;;;42.43;31.17;;;;;;;;;;1759228;81;21507;-71
2022/03/23 13:10:28;;;;;;;44.38;30.97;;;;;;;;;;1759179;81;21029;-72
2022/03/23 13:13:08;;;;;;;41.75;28.20;;;;;;;;;;1758898;81;21083;-71
2022/03/23 13:15:36;;;;;;;41.23;28.30;;;;;;;;;;1759350;81;21067;-72
2022/03/23 13:18:02;;;;;;;48.45;33.15;;;;;;;;;;1759005;81;22111;-71
2022/03/23 13:20:31;;;;;;;48.68;33.20;;;;;;;;;;1759134;81;21094;-71
2022/03/23 13:23:00;;;;;;;49.42;34.33;;;;;;;;;;1757828;81;21035;-71
2022/03/23 13:25:27;;;;;;;47.05;33.00;;;;;;;;;;1759175;81;21051;-71
2022/03/23 13:27:53;;;;;;;43.42;28.92;;;;;;;;;;1759116;81;21087;-71
2022/03/23 13:30:23;;;;;;;43.08;28.52;;;;;;;;;;1759153;81;21067;-71
2022/03/23 13:32:50;;;;;;;38.67;27.90;;;;;;;;;;1758653;81;21507;-71
2022/03/23 13:35:17;;;;;;;40.10;25.72;;;;;;;;;;1759159;81;21004;-71
2022/03/23 13:37:56;;;;;;;38.65;26.37;;;;;;;;;;1758834;81;21060;-71
2022/03/23 13:40:30;;;;;;;37.25;26.42;;;;;;;;;;1758983;81;21023;-71
2022/03/23 13:45:48;;;;;;;33.67;21.07;;;;;;;;;;1758940;81;21059;-70
2022/03/23 13:48:15;;;;;;;31.55;22.00;;;;;;;;;;1758787;81;21063;-71
2022/03/23 13:50:43;;;;;;;31.48;21.25;;;;;;;;;;1756214;81;21733;-71
2022/03/23 13:53:12;;;;;;;36.80;22.95;;;;;;;;;;1749531;82;21076;-71
2022/03/23 13:55:39;;;;;;;37.03;24.43;;;;;;;;;;1751262;82;21000;-71
2022/03/23 13:58:06;;;;;;;33.42;22.50;;;;;;;;;;1751339;82;21024;-71
2022/03/23 14:00:33;;;;;;;37.50;23.42;;;;;;;;;;1750944;82;21020;-71
2022/03/23 14:02:59;;;;;;;34.30;26.10;;;;;;;;;;1751059;80;21036;-71
2022/03/23 14:05:27;;;;;;;36.45;23.80;;;;;;;;;;1751089;82;21106;-71
2022/03/23 14:07:58;;;;;;;35.48;25.32;;;;;;;;;;1721593;82;21071;-71
2022/03/23 14:10:33;;;;;;;36.05;26.25;;;;;;;;;;1750914;82;21032;-71
2022/03/23 14:13:02;;;;;;;32.95;21.52;;;;;;;;;;1751159;82;20985;-71
2022/03/23 14:15:28;;;;;;;30.65;20.25;;;;;;;;;;1751155;82;21472;-70
2022/03/23 14:17:57;;;;;;;28.47;19.12;;;;;;;;;;1751012;82;21098;-70
2022/03/23 14:20:24;;;;;;;26.48;18.27;;;;;;;;;;1751206;82;21480;-71
2022/03/23 14:22:53;;;;;;;25.15;18.20;;;;;;;;;;1751623;82;21075;-70
2022/03/23 14:25:20;;;;;;;31.25;21.30;;;;;;;;;;1751458;82;21509;-71
2022/03/23 14:27:49;;;;;;;29.75;20.23;;;;;;;;;;1751203;82;21044;-71
2022/03/23 14:30:16;;;;;;;29.10;20.97;;;;;;;;;;1751540;82;21024;-71
2022/03/23 14:32:54;;;;;;;31.68;20.55;;;;;;;;;;1751237;82;21036;-69
2022/03/23 14:35:22;;;;;;;30.82;20.60;;;;;;;;;;1751160;82;21063;-70
2022/03/23 14:37:50;;;;;;;31.02;20.72;;;;;;;;;;1751453;82;21012;-69
2022/03/23 14:40:26;;;;;;;29.30;20.23;;;;;;;;;;1751122;82;21012;-71
2022/03/23 14:42:52;;;;;;;29.02;19.00;;;;;;;;;;1751301;82;21028;-69
2022/03/23 14:45:28;;;;;;;29.27;18.25;;;;;;;;;;1751276;82;21099;-71
2022/03/23 14:47:54;;;;;;;34.45;19.77;;;;;;;;;;1751020;82;21032;-71
2022/03/23 14:50:20;;;;;;;28.90;18.67;;;;;;;;;;1751309;82;21055;-70
2022/03/23 14:52:49;;;;;;;29.40;20.20;;;;;;;;;;1750946;82;21079;-70
2022/03/23 14:55:17;;;;;;;32.23;19.67;;;;;;;;;;1751070;82;21024;-69
2022/03/23 14:57:43;;;;;;;33.18;21.05;;;;;;;;;;1751295;82;21063;-69
2022/03/23 15:00:12;;;;;;;30.95;19.10;;;;;;;;;;1751060;82;21028;-69
2022/03/23 15:02:39;;;;;;;26.60;17.92;;;;;;;;;;1751098;82;21012;-72
2022/03/23 15:13:15;;;;;;;32.13;20.97;;;;;;;;;;1750848;80;21009;-71